Flight Track Log - Related Links

Times and Time Zones

All times are in EDT time to prevent confusion due to time zone crossing. See the KAP5 flight status page for this flight to view local times or setup timezone preferences in your user account.

Time Position Orientation Groundspeed Altitude Reporting Facility
EDT Latitude Longitude Course Direction KTS MPH feet Rate Location/Type
Sun 10:34:24 AM 42.3500 -71.0167 236° Southwest 117 135 600  Level KA90
Sun 10:35:12 AM 42.3333 -71.0500 236° Southwest 122 140 1,400 895 Climbing KA90
Sun 10:36:18 AM 42.3000 -71.0833 216° Southwest 122 140 2,300 750 Climbing KA90
Sun 10:37:12 AM 42.2833 -71.1000 216° Southwest 117 135 2,900 684 Climbing KA90
Sun 10:38:12 AM 42.2500 -71.1000 180° South 115 132 3,600 700 Climbing KA90
Sun 10:39:12 AM 42.2333 -71.0833 143° Southeast 119 137 4,300 700 Climbing KA90
Sun 10:40:12 AM 42.2000 -71.0500 143° Southeast 122 140 5,000 350 Climbing KA90
Sun 10:41:12 AM 42.1667 -71.0167 143° Southeast 151 174 5,000  Level KA90
Sun 10:42:12 AM 42.1333 -70.9667 132° Southeast 163 188 5,000  Level KA90
Sun 10:44:00 AM 42.0952 -70.9483 160° South  Level Estimated
Sun 10:51:00 AM 41.9646 -70.8299 146° Southeast  Level FlightAware Approximate
Sun 10:52:00 AM 41.9430 -70.8216 180° South  Level Estimated
Sun 10:53:00 AM 41.9214 -70.8134 161° South  Level Estimated
Sun 10:54:00 AM 41.8999 -70.8043 162° South  Level FlightAware Approximate
Sun 10:55:00 AM 41.8785 -70.7951 162° South  Level FlightAware Approximate
Sun 10:56:00 AM 41.8571 -70.7860 162° South  Level FlightAware Approximate
Sun 10:57:00 AM 41.8356 -70.7768 162° South  Level FlightAware Approximate
Sun 10:58:00 AM 41.8142 -70.7677 162° South  Level FlightAware Approximate
Sun 10:59:00 AM 41.7927 -70.7586 162° South  Level FlightAware Approximate
Sun 11:00:00 AM 41.7713 -70.7495 162° South  Level FlightAware Approximate
Sun 11:01:00 AM 41.7499 -70.7403 162° South  Level FlightAware Approximate
Sun 11:02:00 AM 41.7281 -70.7326 164° South  Level Estimated
Sun 11:03:00 AM 41.7065 -70.7243 164° South  Level FlightAware Approximate
Sun 11:04:00 AM 41.6849 -70.7160 164° South  Level FlightAware Approximate
Sun 11:05:00 AM 41.6633 -70.7076 164° South  Level FlightAware Approximate
Sun 11:06:00 AM 41.6417 -70.6993 164° South  Level FlightAware Approximate
Sun 11:07:00 AM 41.6200 -70.6910 164° South  Level FlightAware Approximate
Sun 11:08:00 AM 41.5983 -70.6836 164° South  Level Estimated
Sun 11:09:00 AM 41.5766 -70.6753 164° South  Level FlightAware Approximate
Sun 11:10:00 AM 41.5550 -70.6671 164° South  Level FlightAware Approximate

Login

Don't have an account? Register now (free) for customized features, flight alerts, and more!